createdAt,value
2023-04-19T00:05:39.262Z,4.88
2023-04-19T00:15:43.298Z,5.20
2023-04-19T00:25:47.094Z,5.18
2023-04-19T00:35:51.077Z,5.47
2023-04-19T00:45:53.955Z,6.28
2023-04-19T00:56:01.017Z,6.15
2023-04-19T01:06:03.894Z,7.07
2023-04-19T01:16:08.791Z,6.65
2023-04-19T01:26:12.855Z,6.85
2023-04-19T01:36:15.547Z,6.18
2023-04-19T01:46:19.670Z,6.18
2023-04-19T01:56:22.817Z,6.95
2023-04-19T02:06:27.683Z,5.65
2023-04-19T02:16:30.401Z,5.90
2023-04-19T02:26:34.454Z,5.72
2023-04-19T02:36:37.113Z,5.10
2023-04-19T02:46:41.171Z,5.22
2023-04-19T02:56:43.849Z,5.40
2023-04-19T03:06:47.869Z,4.72
2023-04-19T03:16:50.676Z,4.97
2023-04-19T03:26:54.734Z,5.38
2023-04-19T03:36:57.553Z,4.65
2023-04-19T03:47:01.584Z,4.50
2023-04-19T03:57:04.352Z,3.67
2023-04-19T04:07:08.392Z,4.63
2023-04-19T04:17:11.156Z,5.93
2023-04-19T04:27:20.088Z,4.72
2023-04-19T04:37:22.785Z,3.78
2023-04-19T04:47:31.636Z,4.45
2023-04-19T04:57:34.444Z,4.07
2023-04-19T05:07:38.458Z,4.50
2023-04-19T05:17:42.919Z,3.95
2023-04-19T05:27:46.972Z,4.45
2023-04-19T05:37:49.639Z,5.35
2023-04-19T05:47:53.744Z,7.32
2023-04-19T05:57:56.764Z,3.80
2023-04-19T06:08:02.736Z,3.55
2023-04-19T06:18:10.045Z,3.38
2023-04-19T06:28:14.123Z,3.15
2023-04-19T06:38:16.842Z,2.70
2023-04-19T06:48:20.832Z,2.97
2023-04-19T06:58:23.535Z,2.70
2023-04-19T07:08:38.576Z,2.20
2023-04-19T07:18:50.936Z,2.00
2023-04-19T07:28:55.757Z,1.60
2023-04-19T07:38:58.784Z,1.73
2023-04-19T07:49:02.904Z,1.83
2023-04-19T07:59:08.848Z,1.80
2023-04-19T08:09:13.794Z,1.50
2023-04-19T08:19:16.450Z,1.58
2023-04-19T08:29:20.464Z,1.63
2023-04-19T08:39:32.521Z,1.60
2023-04-19T08:49:42.653Z,1.60
2023-04-19T08:59:49.132Z,1.87
2023-04-19T09:10:07.413Z,1.30
2023-04-19T09:20:10.658Z,1.50
2023-04-19T09:30:24.103Z,1.23
2023-04-19T09:40:33.238Z,1.33
2023-04-19T09:50:46.626Z,1.40
2023-04-19T10:01:10.744Z,1.50
2023-04-19T10:11:18.747Z,1.20
2023-04-19T10:21:22.296Z,1.92
2023-04-19T10:31:28.027Z,1.58
2023-04-19T10:41:58.475Z,2.20
2023-04-19T10:52:02.493Z,1.95
2023-04-19T11:02:06.736Z,2.20
2023-04-19T11:12:13.750Z,2.05
2023-04-19T11:22:16.459Z,2.10
2023-04-19T11:32:22.388Z,2.10
2023-04-19T11:42:25.118Z,1.85
2023-04-19T11:52:29.164Z,2.30
2023-04-19T12:02:32.063Z,2.00
2023-04-19T12:12:36.389Z,1.90
2023-04-19T12:22:39.049Z,1.90
2023-04-19T12:32:43.105Z,2.08
2023-04-19T12:42:45.836Z,1.90
2023-04-19T12:52:51.862Z,1.90
2023-04-19T13:02:55.122Z,1.90
2023-04-19T13:13:00.645Z,1.95
2023-04-19T13:23:03.377Z,1.60
2023-04-19T13:33:08.925Z,1.60
2023-04-19T13:43:11.810Z,1.70
2023-04-19T13:53:15.869Z,1.70
2023-04-19T14:03:18.927Z,1.30
2023-04-19T14:13:23.089Z,1.50
2023-04-19T14:23:25.727Z,1.95
2023-04-19T14:33:29.762Z,1.95
2023-04-19T14:43:32.965Z,1.85
2023-04-19T14:53:37.074Z,1.50
2023-04-19T15:03:40.137Z,1.58
2023-04-19T15:13:44.392Z,1.90
2023-04-19T15:23:47.092Z,1.83
2023-04-19T15:33:51.121Z,1.95
2023-04-19T15:43:53.964Z,2.00
2023-04-19T15:53:58.003Z,1.90
2023-04-19T16:04:00.876Z,2.40
2023-04-19T16:14:05.069Z,2.80
2023-04-19T16:24:08.366Z,2.15
2023-04-19T16:34:12.388Z,1.80
2023-04-19T16:44:15.046Z,2.05
2023-04-19T16:54:19.061Z,1.70
2023-04-19T17:04:21.786Z,1.55
2023-04-19T17:14:26.036Z,1.75
2023-04-19T17:24:28.740Z,1.48
2023-04-19T17:34:34.653Z,1.42
2023-04-19T17:44:38.811Z,1.65
2023-04-19T17:54:42.855Z,1.88
2023-04-19T18:04:45.605Z,7.72
2023-04-19T18:14:49.657Z,1.88
2023-04-19T18:24:53.384Z,10.75
2023-04-19T18:34:57.466Z,1.60
2023-04-19T18:45:00.396Z,1.70
2023-04-19T18:55:04.779Z,2.00
2023-04-19T19:05:08.532Z,1.92
2023-04-19T19:15:14.434Z,1.73
2023-04-19T19:25:17.326Z,2.03
2023-04-19T19:35:21.426Z,1.50
2023-04-19T19:45:24.232Z,1.60
2023-04-19T19:55:28.506Z,2.22
2023-04-19T20:05:31.375Z,2.08
2023-04-19T20:15:36.629Z,2.10
2023-04-19T20:25:39.545Z,1.70
2023-04-19T20:35:43.962Z,2.30
2023-04-19T20:45:47.178Z,2.25
2023-04-19T20:55:52.014Z,2.50
2023-04-19T21:05:54.655Z,2.20
2023-04-19T21:15:58.794Z,2.35
2023-04-19T21:26:04.192Z,3.65
2023-04-19T21:36:09.033Z,2.70
2023-04-19T21:46:11.779Z,2.95
2023-04-19T21:56:15.766Z,3.13
2023-04-19T22:06:19.214Z,2.75
2023-04-19T22:16:23.421Z,2.67
2023-04-19T22:26:26.792Z,2.55
2023-04-19T22:36:30.829Z,2.70
2023-04-19T22:46:33.799Z,2.30
2023-04-19T22:56:37.863Z,2.20
2023-04-19T23:06:40.789Z,2.40
2023-04-19T23:16:45.606Z,2.78
2023-04-19T23:26:48.261Z,2.42
2023-04-19T23:36:52.322Z,2.20
2023-04-19T23:46:55.125Z,2.28
2023-04-19T23:56:59.493Z,2.15
